Constitution — C6BV8 — position and weather

sailwx.info

Track history (hours):
 
Tides and Currents Weather Stations Pressure Air Temp Water Temp Dewpoint Dewpoint Depression Visibility Wind Speed Wind Dir Waves Ship Positions

Constitution

Last reported at 2018-Mar-04 15:40 UTC. Time now 2018-Apr-24 16:42 UTC.
Position N 41°39' E 141°37'.
Warning: this ship's position is 51 days out of date.

Length 225 m; draft 8 m.

Type: Tanker. MMSI: 311000379.

Date/timePositionNaut miles runAvg speedWind from/ knotsBaromVisibWave heightAir tempDewpointWater temp
2018-Mar-04 15:40N 41°39' E 141°37'315.5
2018-Mar-04 15:30N 41°39' E 141°34'816.2
2018-Mar-04 15:00N 41°38' E 141°23'815.2
2018-Mar-04 14:30N 41°38' E 141°13'715.0
2018-Mar-04 14:00N 41°38' E 141°03'816.4
2018-Mar-04 13:30N 41°38' E 140°52'816.0
2018-Mar-04 13:00N 41°34' E 140°43'815.4
2018-Mar-04 12:31N 41°30' E 140°34'815.5
2018-Mar-04 12:00N 41°25' E 140°26'915.7
2018-Mar-04 11:25N 41°19' E 140°16'  
2018-Feb-27 16:27N 37°56' E 122°14'  
Track history (hours):
 
Tides and Currents Weather Stations Pressure Air Temp Water Temp Dewpoint Dewpoint Depression Visibility Wind Speed Wind Dir Waves Ship Positions

Constitution

Last reported at 2018-Mar-04 15:40 UTC. Time now 2018-Apr-24 16:42 UTC.
Position N 41°39' E 141°37'.
Warning: this ship's position is 51 days out of date.

Length 225 m; draft 8 m.

Type: Tanker. MMSI: 311000379.

Date/timePositionNaut miles runAvg speedWind from/ knotsBaromVisibWave heightAir tempDewpointWater temp
2018-Mar-04 15:40N 41°39' E 141°37'315.5
2018-Mar-04 15:30N 41°39' E 141°34'816.2
2018-Mar-04 15:00N 41°38' E 141°23'815.2
2018-Mar-04 14:30N 41°38' E 141°13'715.0
2018-Mar-04 14:00N 41°38' E 141°03'816.4
2018-Mar-04 13:30N 41°38' E 140°52'816.0
2018-Mar-04 13:00N 41°34' E 140°43'815.4
2018-Mar-04 12:31N 41°30' E 140°34'815.5
2018-Mar-04 12:00N 41°25' E 140°26'915.7
2018-Mar-04 11:25N 41°19' E 140°16'  
2018-Feb-27 16:27N 37°56' E 122°14'  

Dump ship's entire track history